This is the latest recevied weather packets stored in our database for station/object DK6GC-10. If no packets are shown the sender has not sent any weather packets the latest 1 day(s).
| Time | Temp. | Humidity | Pressure | Rain* | Wind** | Luminosity | Snow |
|---|---|---|---|---|---|---|---|
| 1778038223 | 10° C | 90% | 1008.1 hPa | - | - | - | - |
| 1778037322 | 10.56° C | 90% | 1008.2 hPa | - | - | - | - |
| 1778036422 | 11.11° C | 91% | 1008.3 hPa | - | - | - | - |
| 1778033721 | 12.22° C | 90% | 1008.7 hPa | - | - | - | - |
| 1778032821 | 12.22° C | 89% | 1008.8 hPa | - | - | - | - |
| 1778031020 | 12.22° C | 88% | 1008.7 hPa | - | - | - | - |
| 1778030120 | 12.22° C | 88% | 1008.6 hPa | - | - | - | - |
| 1778029220 | 12.22° C | 88% | 1008.7 hPa | - | - | - | - |
| 1778028320 | 12.22° C | 88% | 1008.7 hPa | - | - | - | - |
| 1778027419 | 12.22° C | 88% | 1009 hPa | - | - | - | - |
| 1778026519 | 12.22° C | 90% | 1009.1 hPa | - | - | - | - |
| 1778024723 | 12.78° C | 87% | 1009.4 hPa | - | - | - | - |
| 1778023823 | 12.78° C | 87% | 1009.4 hPa | - | - | - | - |
| 1778022923 | 13.33° C | 88% | 1009.4 hPa | - | - | - | - |
| 1778018422 | 12.22° C | 91% | 1009.7 hPa | - | - | - | - |
| 1778013921 | 13.33° C | 91% | 1009.5 hPa | - | - | - | - |
| 1778013021 | 13.33° C | 91% | 1009.5 hPa | - | - | - | - |
| 1778010320 | 13.33° C | 91% | 1009.1 hPa | - | - | - | - |
| 1778009420 | 13.33° C | 91% | 1009.1 hPa | - | - | - | - |
| 1778004918 | 13.89° C | 89% | 1009.1 hPa | - | - | - | - |
| 1778004023 | 13.89° C | 89% | 1009.4 hPa | - | - | - | - |
* Rain since midnight (hover to see other rain measurements)
** Current wind speed in m/s (hover to see current wind gust speed)